16CA weather

Police Pistol Range Heliport
San Francisco, California, United States

Public forecast

Using degrees Fahrenheit for public forecast. Weather courtesy of forecast.io.

METAR (pilot weather report)

Closest report is San Francisco International Airport, 8.4 nm (15.6 km) SE. Retrieved 2019/06/15 18:56 UTC (1 hour ago):

KSFO 151856Z 25012KT 10SM FEW008 BKN016 BKN020 14/10 A3000 RMK AO2 SLP159 T01440100

TAF (pilot weather forecast)

Closest forecast is San Francisco International Airport, 8.4 nm (15.6 km) SE. Retrieved 2019/06/15 18:24 UTC (2 hours ago):

TAF KSFO 151720Z 1518/1624 26010KT P6SM FEW006 BKN010 OVC012 FM152000 28012KT P6SM SCT015 FM152200 28017KT P6SM FEW010 FM160300 28012KT P6SM BKN012 FM160700 28010KT P6SM OVC010 FM162000 26010KT P6SM FEW010 SCT200